createdAt,value
2022-09-15T00:01:13.639Z,17.60
2022-09-15T00:03:41.498Z,17.60
2022-09-15T00:06:09.678Z,17.70
2022-09-15T00:08:37.245Z,17.80
2022-09-15T00:11:30.709Z,17.80
2022-09-15T00:14:02.442Z,17.90
2022-09-15T00:16:31.310Z,17.80
2022-09-15T00:18:59.525Z,17.80
2022-09-15T00:21:33.134Z,17.70
2022-09-15T00:24:01.529Z,17.70
2022-09-15T00:26:30.917Z,17.60
2022-09-15T00:28:59.827Z,17.60
2022-09-15T00:31:29.349Z,17.60
2022-09-15T00:33:58.329Z,17.50
2022-09-15T00:36:27.069Z,17.50
2022-09-15T00:38:55.312Z,17.50
2022-09-15T00:41:24.303Z,17.50
2022-09-15T00:43:53.450Z,17.50
2022-09-15T00:46:24.388Z,17.60
2022-09-15T00:49:16.587Z,17.60
2022-09-15T00:51:53.108Z,17.60
2022-09-15T00:54:31.192Z,17.60
2022-09-15T00:57:02.090Z,17.60
2022-09-15T00:59:31.978Z,17.50
2022-09-15T01:02:15.866Z,17.60
2022-09-15T01:04:43.473Z,17.50
2022-09-15T01:07:16.153Z,17.50
2022-09-15T01:10:15.150Z,17.50
2022-09-15T01:12:42.799Z,17.50
2022-09-15T01:15:10.737Z,17.50
2022-09-15T01:18:06.766Z,17.50
2022-09-15T01:20:48.681Z,17.50
2022-09-15T01:23:44.752Z,17.50
2022-09-15T01:26:27.953Z,17.50
2022-09-15T01:29:24.521Z,17.50
2022-09-15T01:32:27.475Z,17.50
2022-09-15T01:35:25.862Z,17.50
2022-09-15T01:38:02.887Z,17.50
2022-09-15T01:40:35.928Z,17.50
2022-09-15T01:43:05.601Z,17.50
2022-09-15T01:45:34.630Z,17.50
2022-09-15T01:48:04.663Z,17.50
2022-09-15T01:50:37.684Z,17.50
2022-09-15T01:53:11.269Z,17.50
2022-09-15T01:55:53.935Z,17.50
2022-09-15T01:58:21.816Z,17.50
2022-09-15T02:01:04.146Z,17.50
2022-09-15T02:03:45.456Z,17.50
2022-09-15T02:06:36.727Z,17.40
2022-09-15T02:09:12.987Z,17.40
2022-09-15T02:11:53.139Z,17.40
2022-09-15T02:14:48.273Z,17.40
2022-09-15T02:17:19.648Z,17.40
2022-09-15T02:19:55.100Z,17.40
2022-09-15T02:22:30.792Z,17.40
2022-09-15T02:25:14.278Z,17.30
2022-09-15T02:27:46.786Z,17.30
2022-09-15T02:30:16.973Z,17.30
2022-09-15T02:32:56.362Z,17.30
2022-09-15T02:35:26.157Z,17.30
2022-09-15T02:37:54.502Z,17.30
2022-09-15T02:40:23.226Z,17.40
2022-09-15T02:42:57.835Z,17.40
2022-09-15T02:45:27.043Z,17.40
2022-09-15T02:47:54.561Z,17.40
2022-09-15T02:50:21.891Z,17.40
2022-09-15T02:52:49.118Z,17.40
2022-09-15T02:55:16.496Z,17.40
2022-09-15T02:57:43.712Z,17.40
2022-09-15T03:00:14.634Z,17.40
2022-09-15T03:02:43.952Z,17.40
2022-09-15T03:05:13.348Z,17.40
2022-09-15T03:07:41.398Z,17.40
2022-09-15T03:10:10.188Z,17.40
2022-09-15T03:12:41.603Z,17.40
2022-09-15T03:15:11.268Z,17.40
2022-09-15T03:17:41.747Z,17.40
2022-09-15T03:20:11.906Z,17.40
2022-09-15T03:22:39.527Z,17.40
2022-09-15T03:25:08.016Z,17.40
2022-09-15T03:27:35.853Z,17.40
2022-09-15T03:30:05.243Z,17.30
2022-09-15T03:32:32.613Z,17.40
2022-09-15T03:34:59.861Z,17.40
2022-09-15T03:37:27.197Z,17.30
2022-09-15T03:39:54.589Z,17.30
2022-09-15T03:42:22.282Z,17.40
2022-09-15T03:44:49.482Z,17.40
2022-09-15T03:47:16.922Z,17.40
2022-09-15T03:49:44.121Z,17.50
2022-09-15T03:52:12.276Z,17.50
2022-09-15T03:54:40.210Z,17.50
2022-09-15T03:57:07.541Z,17.50
2022-09-15T03:59:34.741Z,17.60
2022-09-15T04:02:02.141Z,17.50
2022-09-15T04:04:29.715Z,17.60
2022-09-15T04:06:57.017Z,17.60
2022-09-15T04:09:25.819Z,17.60
2022-09-15T04:11:53.106Z,17.50
2022-09-15T04:14:20.314Z,17.50
2022-09-15T04:16:47.789Z,17.60
2022-09-15T04:19:15.027Z,17.50
2022-09-15T04:21:42.390Z,17.50
2022-09-15T04:24:09.688Z,17.50
2022-09-15T04:26:37.618Z,17.60
2022-09-15T04:29:06.233Z,17.60
2022-09-15T04:31:34.267Z,17.60
2022-09-15T04:34:01.598Z,17.60
2022-09-15T04:36:29.502Z,17.60
2022-09-15T04:38:58.268Z,17.60
2022-09-15T04:41:26.727Z,17.60
2022-09-15T04:43:54.310Z,17.60
2022-09-15T04:46:21.951Z,17.50
2022-09-15T04:48:49.502Z,17.40
2022-09-15T04:51:21.847Z,17.30
2022-09-15T04:53:49.687Z,17.40
2022-09-15T04:56:19.965Z,17.30
2022-09-15T04:59:00.881Z,17.30
2022-09-15T05:01:33.904Z,17.30
2022-09-15T05:04:06.069Z,17.30
2022-09-15T05:06:33.435Z,17.30
2022-09-15T05:09:01.430Z,17.30
2022-09-15T05:11:28.711Z,17.30
2022-09-15T05:13:55.954Z,17.30
2022-09-15T05:16:25.571Z,17.40
2022-09-15T05:18:54.776Z,17.30
2022-09-15T05:21:23.494Z,17.30
2022-09-15T05:23:54.337Z,17.40
2022-09-15T05:26:29.725Z,17.30
2022-09-15T05:28:57.959Z,17.30
2022-09-15T05:31:31.239Z,17.30
2022-09-15T05:34:02.038Z,17.40
2022-09-15T05:36:30.085Z,17.40
2022-09-15T05:38:58.375Z,17.40
2022-09-15T05:41:27.330Z,17.30
2022-09-15T05:43:57.111Z,17.30
2022-09-15T05:46:28.053Z,17.30
2022-09-15T05:48:57.494Z,17.40
2022-09-15T05:51:24.938Z,17.40
2022-09-15T05:53:52.476Z,17.40
2022-09-15T05:56:21.322Z,17.40
2022-09-15T05:58:49.519Z,17.40
2022-09-15T06:01:23.142Z,17.40
2022-09-15T06:03:51.025Z,17.30
2022-09-15T06:06:19.302Z,17.30
2022-09-15T06:08:52.856Z,17.30
2022-09-15T06:11:27.487Z,17.30
2022-09-15T06:13:54.795Z,17.40
2022-09-15T06:16:24.130Z,17.40
2022-09-15T06:18:53.116Z,17.40
2022-09-15T06:21:23.159Z,17.40
2022-09-15T06:23:55.186Z,17.50
2022-09-15T06:26:23.480Z,17.50
2022-09-15T06:28:56.565Z,17.60
2022-09-15T06:31:25.492Z,17.60
2022-09-15T06:33:57.806Z,17.60
2022-09-15T06:36:28.139Z,17.60
2022-09-15T06:38:55.921Z,17.70
2022-09-15T06:41:23.534Z,17.70
2022-09-15T06:43:51.462Z,17.70
2022-09-15T06:46:22.821Z,17.70
2022-09-15T06:48:51.387Z,17.80
2022-09-15T06:51:22.465Z,17.80
2022-09-15T06:53:50.412Z,17.80
2022-09-15T06:56:20.473Z,17.80
2022-09-15T06:58:52.053Z,17.70
2022-09-15T07:01:25.307Z,17.70
2022-09-15T07:03:53.140Z,17.70
2022-09-15T07:06:21.559Z,17.60
2022-09-15T07:08:50.198Z,17.50
2022-09-15T07:11:18.556Z,17.50
2022-09-15T07:13:47.467Z,17.50
2022-09-15T07:16:15.567Z,17.50
2022-09-15T07:18:43.671Z,17.60
2022-09-15T07:21:14.166Z,17.70
2022-09-15T07:23:42.009Z,17.80
2022-09-15T07:26:13.879Z,17.80
2022-09-15T07:28:44.578Z,17.90
2022-09-15T07:31:15.422Z,17.90
2022-09-15T07:33:42.772Z,18.00
2022-09-15T07:36:11.503Z,18.00
2022-09-15T07:38:44.351Z,17.90
2022-09-15T07:41:14.707Z,17.70
2022-09-15T07:43:52.820Z,17.60
2022-09-15T07:46:21.920Z,17.60
2022-09-15T07:48:51.317Z,17.50
2022-09-15T07:51:19.266Z,17.50
2022-09-15T07:53:48.642Z,17.50
2022-09-15T07:56:19.788Z,17.60
2022-09-15T07:58:48.249Z,17.50
2022-09-15T08:01:17.271Z,17.60
2022-09-15T08:03:49.600Z,17.60
2022-09-15T08:06:19.064Z,17.70
2022-09-15T08:08:46.463Z,17.50
2022-09-15T08:11:19.548Z,17.50
2022-09-15T08:13:48.330Z,17.40
2022-09-15T08:16:22.112Z,17.50
2022-09-15T08:18:50.110Z,17.60
2022-09-15T08:21:20.440Z,17.80
2022-09-15T08:23:56.291Z,17.90
2022-09-15T08:26:27.483Z,18.20
2022-09-15T08:28:54.890Z,18.40
2022-09-15T08:31:24.507Z,18.40
2022-09-15T08:33:53.601Z,18.50
2022-09-15T08:36:21.446Z,18.30
2022-09-15T08:38:48.914Z,18.40
2022-09-15T08:41:29.719Z,18.20
2022-09-15T08:44:01.319Z,18.30
2022-09-15T08:46:39.919Z,18.40
2022-09-15T08:49:26.809Z,18.40
2022-09-15T08:52:08.026Z,18.50
2022-09-15T08:54:35.210Z,18.60
2022-09-15T08:57:06.266Z,18.60
2022-09-15T08:59:37.609Z,18.50
2022-09-15T09:02:31.677Z,18.20
2022-09-15T09:05:25.152Z,18.00
2022-09-15T09:08:20.635Z,17.70
2022-09-15T09:10:55.996Z,17.70
2022-09-15T09:13:34.689Z,17.70
2022-09-15T09:16:28.258Z,17.80
2022-09-15T09:19:36.064Z,17.70
2022-09-15T09:22:14.072Z,17.80
2022-09-15T09:24:50.502Z,17.80
2022-09-15T09:27:22.343Z,17.80
2022-09-15T09:29:54.648Z,17.70
2022-09-15T09:32:26.224Z,17.70
2022-09-15T09:35:03.173Z,17.60
2022-09-15T09:37:30.745Z,17.60
2022-09-15T09:39:57.937Z,17.50
2022-09-15T09:42:30.732Z,17.60
2022-09-15T09:44:58.155Z,17.60
2022-09-15T09:47:30.076Z,17.40
2022-09-15T09:49:57.176Z,17.30
2022-09-15T09:52:36.398Z,17.20
2022-09-15T09:55:25.195Z,17.20
2022-09-15T09:57:52.525Z,17.20
2022-09-15T10:00:38.649Z,17.30
2022-09-15T10:03:16.649Z,17.50
2022-09-15T10:05:44.793Z,18.00
2022-09-15T10:08:17.858Z,18.20
2022-09-15T10:10:56.161Z,18.40
2022-09-15T10:13:23.429Z,18.50
2022-09-15T10:15:54.631Z,18.40
2022-09-15T10:18:27.753Z,18.20
2022-09-15T10:20:55.293Z,18.30
2022-09-15T10:23:28.630Z,18.10
2022-09-15T10:26:17.178Z,18.00
2022-09-15T10:28:46.062Z,18.10
2022-09-15T10:31:29.685Z,18.20
2022-09-15T10:33:57.364Z,18.20
2022-09-15T10:36:30.998Z,18.20
2022-09-15T10:39:29.194Z,18.50
2022-09-15T10:42:04.541Z,18.50
2022-09-15T10:45:00.594Z,18.60
2022-09-15T10:47:42.868Z,18.40
2022-09-15T10:50:21.795Z,18.40
2022-09-15T10:53:28.360Z,18.20
2022-09-15T10:56:10.986Z,17.90
2022-09-15T10:59:22.770Z,17.90
2022-09-15T11:02:20.429Z,18.00
2022-09-15T11:05:04.892Z,18.00
2022-09-15T11:07:54.365Z,17.80
2022-09-15T11:10:42.290Z,17.80
2022-09-15T11:13:26.561Z,17.80
2022-09-15T11:16:06.021Z,17.80
2022-09-15T11:18:57.900Z,17.80
2022-09-15T11:21:39.427Z,17.90
2022-09-15T11:24:12.012Z,18.10
2022-09-15T11:26:48.935Z,18.50
2022-09-15T11:29:24.058Z,18.70
2022-09-15T11:32:05.553Z,18.60
2022-09-15T11:34:41.330Z,18.40
2022-09-15T11:37:17.113Z,18.30
2022-09-15T11:40:16.001Z,18.00
2022-09-15T11:42:52.656Z,17.80
2022-09-15T11:45:28.110Z,17.50
2022-09-15T11:48:11.889Z,17.60
2022-09-15T11:50:43.976Z,17.80
2022-09-15T11:53:25.729Z,18.00
2022-09-15T11:56:15.229Z,18.20
2022-09-15T11:58:57.412Z,18.60
2022-09-15T12:01:44.897Z,18.70
2022-09-15T12:04:32.216Z,18.70
2022-09-15T12:07:18.896Z,18.60
2022-09-15T12:09:48.332Z,18.40
2022-09-15T12:12:18.935Z,18.20
2022-09-15T12:14:48.666Z,18.00
2022-09-15T12:17:30.335Z,17.80
2022-09-15T12:20:24.230Z,17.70
2022-09-15T12:23:15.648Z,17.60
2022-09-15T12:25:54.942Z,17.50
2022-09-15T12:28:22.268Z,17.40
2022-09-15T12:31:10.872Z,17.50
2022-09-15T12:34:00.894Z,17.60
2022-09-15T12:36:46.185Z,17.80
2022-09-15T12:39:43.314Z,17.90
2022-09-15T12:42:19.083Z,17.90
2022-09-15T12:45:02.148Z,18.00
2022-09-15T12:47:32.978Z,18.00
2022-09-15T12:50:16.674Z,18.00
2022-09-15T12:53:12.639Z,18.00
2022-09-15T12:55:50.096Z,18.00
2022-09-15T12:58:22.779Z,17.90
2022-09-15T13:01:13.998Z,17.90
2022-09-15T13:06:34.358Z,17.80
2022-09-15T13:09:01.625Z,17.80
2022-09-15T13:11:37.907Z,17.70
2022-09-15T13:14:08.175Z,17.60
2022-09-15T13:16:52.856Z,17.50
2022-09-15T13:19:42.044Z,17.40
2022-09-15T13:22:12.269Z,17.40
2022-09-15T13:25:01.591Z,17.60
2022-09-15T13:27:49.809Z,17.60
2022-09-15T13:30:29.293Z,17.70
2022-09-15T13:33:15.992Z,17.70
2022-09-15T13:35:52.590Z,17.90
2022-09-15T13:38:46.322Z,18.10
2022-09-15T13:41:16.672Z,18.20
2022-09-15T13:44:02.187Z,18.30
2022-09-15T13:46:55.131Z,18.30
2022-09-15T13:49:35.880Z,18.50
2022-09-15T13:52:22.643Z,18.90
2022-09-15T13:55:14.671Z,19.30
2022-09-15T14:00:48.386Z,20.60
2022-09-15T14:03:24.039Z,20.40
2022-09-15T14:05:52.095Z,21.20
2022-09-15T14:08:25.034Z,21.80
2022-09-15T14:10:56.718Z,21.90
2022-09-15T14:13:26.920Z,21.20
2022-09-15T14:16:03.905Z,20.80
2022-09-15T14:18:42.230Z,20.20
2022-09-15T14:21:30.513Z,20.00
2022-09-15T14:24:06.458Z,19.70
2022-09-15T14:26:35.983Z,19.80
2022-09-15T14:29:06.102Z,20.10
2022-09-15T14:31:37.420Z,20.90
2022-09-15T14:34:18.097Z,22.00
2022-09-15T14:36:47.050Z,23.00
2022-09-15T14:39:21.271Z,22.90
2022-09-15T14:41:50.180Z,22.00
2022-09-15T14:47:20.442Z,20.70
2022-09-15T14:49:49.168Z,19.90
2022-09-15T14:52:27.372Z,19.90
2022-09-15T14:54:59.956Z,19.70
2022-09-15T14:57:31.229Z,20.30
2022-09-15T15:00:04.003Z,21.50
2022-09-15T15:02:52.070Z,22.30
2022-09-15T15:05:34.287Z,22.20
2022-09-15T15:08:05.423Z,21.80
2022-09-15T15:10:35.899Z,21.40
2022-09-15T15:13:15.392Z,21.30
2022-09-15T15:15:43.739Z,21.20
2022-09-15T15:18:31.815Z,21.30
2022-09-15T15:25:27.661Z,24.50
2022-09-15T15:27:59.443Z,27.20
2022-09-15T15:30:29.703Z,27.90
2022-09-15T15:32:58.234Z,27.20
2022-09-15T15:35:26.215Z,27.50
2022-09-15T15:38:06.971Z,27.40
2022-09-15T15:40:36.863Z,26.70
2022-09-15T15:43:24.000Z,25.00
2022-09-15T15:46:03.314Z,23.40
2022-09-15T15:48:37.937Z,21.90
2022-09-15T15:51:07.566Z,20.50
2022-09-15T15:53:35.040Z,19.60
2022-09-15T15:56:02.503Z,18.90
2022-09-15T15:58:29.764Z,18.70
2022-09-15T16:00:57.954Z,18.30
2022-09-15T16:03:25.775Z,17.90
2022-09-15T16:05:57.000Z,17.70
2022-09-15T16:08:29.544Z,17.50
2022-09-15T16:10:57.820Z,17.40
2022-09-15T16:13:25.884Z,17.20
2022-09-15T16:15:54.348Z,17.20
2022-09-15T16:18:21.653Z,17.10
2022-09-15T16:20:49.214Z,17.00
2022-09-15T16:23:19.084Z,17.00
2022-09-15T16:25:57.872Z,17.00
2022-09-15T16:28:25.921Z,17.00
2022-09-15T16:30:53.146Z,17.00
2022-09-15T16:33:21.284Z,17.00
2022-09-15T16:36:07.130Z,17.00
2022-09-15T16:38:36.615Z,16.90
2022-09-15T16:41:12.559Z,16.90
2022-09-15T16:43:39.791Z,16.90
2022-09-15T16:46:09.203Z,16.90
2022-09-15T16:48:36.826Z,17.60
2022-09-15T16:51:27.883Z,17.80
2022-09-15T16:53:54.848Z,18.10
2022-09-15T16:56:24.185Z,18.30
2022-09-15T16:59:00.147Z,17.90
2022-09-15T17:01:34.223Z,17.80
2022-09-15T17:04:09.728Z,17.90
2022-09-15T17:06:44.198Z,17.90
2022-09-15T17:09:12.283Z,17.60
2022-09-15T17:11:41.160Z,17.20
2022-09-15T17:14:14.140Z,17.00
2022-09-15T17:16:41.752Z,16.80
2022-09-15T17:19:09.363Z,16.50
2022-09-15T17:21:39.610Z,16.30
2022-09-15T17:24:09.738Z,16.20
2022-09-15T17:26:37.018Z,16.10
2022-09-15T17:29:05.649Z,15.90
2022-09-15T17:31:33.189Z,15.80
2022-09-15T17:34:03.104Z,15.70
2022-09-15T17:36:30.573Z,15.60
2022-09-15T17:38:57.768Z,15.50
2022-09-15T17:41:25.132Z,15.40
2022-09-15T17:43:52.620Z,15.40
2022-09-15T17:46:20.163Z,15.30
2022-09-15T17:48:47.519Z,15.30
2022-09-15T17:51:19.470Z,15.20
2022-09-15T17:53:48.105Z,15.20
2022-09-15T17:56:15.485Z,15.10
2022-09-15T17:58:43.328Z,15.00
2022-09-15T18:01:15.474Z,15.00
2022-09-15T18:03:44.408Z,14.90
2022-09-15T18:06:12.298Z,14.90
2022-09-15T18:08:40.190Z,14.80
2022-09-15T18:11:08.210Z,14.80
2022-09-15T18:13:37.335Z,14.70
2022-09-15T18:16:06.733Z,14.70
2022-09-15T18:18:34.317Z,14.70
2022-09-15T18:21:01.931Z,14.60
2022-09-15T18:23:29.750Z,14.60
2022-09-15T18:25:57.758Z,14.50
2022-09-15T18:28:25.100Z,14.40
2022-09-15T18:30:52.848Z,14.40
2022-09-15T18:33:24.918Z,14.40
2022-09-15T18:35:54.941Z,14.40
2022-09-15T18:38:22.541Z,14.30
2022-09-15T18:40:53.499Z,14.30
2022-09-15T18:43:21.902Z,14.20
2022-09-15T18:45:50.442Z,14.20
2022-09-15T18:48:17.816Z,14.10
2022-09-15T18:50:45.303Z,14.10
2022-09-15T18:53:12.980Z,14.10
2022-09-15T18:55:42.135Z,14.10
2022-09-15T18:58:10.352Z,14.00
2022-09-15T19:00:38.035Z,14.00
2022-09-15T19:03:07.040Z,14.00
2022-09-15T19:05:34.476Z,13.90
2022-09-15T19:08:02.294Z,14.00
2022-09-15T19:10:29.831Z,13.90
2022-09-15T19:12:57.075Z,13.90
2022-09-15T19:15:24.354Z,13.90
2022-09-15T19:17:51.628Z,13.90
2022-09-15T19:20:19.412Z,14.00
2022-09-15T19:22:47.562Z,14.00
2022-09-15T19:25:15.322Z,14.00
2022-09-15T19:27:43.186Z,14.00
2022-09-15T19:30:12.072Z,14.00
2022-09-15T19:32:40.518Z,14.10
2022-09-15T19:35:09.243Z,14.10
2022-09-15T19:37:42.397Z,14.10
2022-09-15T19:40:12.437Z,14.00
2022-09-15T19:42:41.952Z,14.10
2022-09-15T19:45:13.098Z,14.00
2022-09-15T19:47:40.903Z,14.00
2022-09-15T19:50:10.134Z,14.00
2022-09-15T19:52:37.398Z,14.00
2022-09-15T19:55:07.436Z,14.00
2022-09-15T19:57:34.748Z,14.00
2022-09-15T20:00:02.233Z,14.00
2022-09-15T20:02:31.775Z,13.90
2022-09-15T20:04:59.017Z,13.90
2022-09-15T20:07:26.334Z,13.90
2022-09-15T20:09:54.000Z,13.90
2022-09-15T20:14:53.520Z,13.90
2022-09-15T20:17:20.768Z,13.90
2022-09-15T20:19:48.042Z,13.90
2022-09-15T20:22:15.325Z,13.90
2022-09-15T20:24:42.524Z,14.00
2022-09-15T20:27:09.849Z,14.00
2022-09-15T20:29:37.068Z,14.00
2022-09-15T20:32:04.463Z,14.00
2022-09-15T20:34:31.716Z,13.90
2022-09-15T20:36:58.898Z,13.90
2022-09-15T20:39:26.208Z,13.90
2022-09-15T20:41:53.471Z,13.80
2022-09-15T20:44:20.704Z,13.80
2022-09-15T20:46:47.953Z,13.80
2022-09-15T20:49:15.916Z,13.80
2022-09-15T20:51:43.249Z,13.70
2022-09-15T20:54:11.119Z,13.70
2022-09-15T20:56:38.398Z,13.80
2022-09-15T20:59:07.872Z,13.80
2022-09-15T21:01:38.472Z,13.80
2022-09-15T21:04:07.623Z,13.70
2022-09-15T21:06:35.187Z,13.70
2022-09-15T21:09:03.868Z,13.70
2022-09-15T21:11:31.639Z,13.70
2022-09-15T21:13:58.998Z,13.70
2022-09-15T21:16:28.779Z,13.70
2022-09-15T21:18:57.649Z,13.70
2022-09-15T21:21:27.519Z,13.70
2022-09-15T21:23:58.753Z,13.70
2022-09-15T21:26:28.399Z,13.60
2022-09-15T21:28:56.522Z,13.60
2022-09-15T21:31:26.446Z,13.60
2022-09-15T21:33:54.746Z,13.60
2022-09-15T21:36:24.696Z,13.50
2022-09-15T21:38:53.723Z,13.50
2022-09-15T21:41:23.557Z,13.50
2022-09-15T21:43:55.791Z,13.50
2022-09-15T21:46:25.412Z,13.50
2022-09-15T21:48:53.270Z,13.40
2022-09-15T21:51:24.627Z,13.40
2022-09-15T21:53:57.035Z,13.40
2022-09-15T21:56:25.101Z,13.30
2022-09-15T21:58:52.490Z,13.30
2022-09-15T22:01:23.631Z,13.30
2022-09-15T22:03:53.895Z,13.40
2022-09-15T22:06:27.635Z,13.40
2022-09-15T22:08:55.492Z,13.50
2022-09-15T22:11:24.528Z,13.50
2022-09-15T22:13:51.928Z,13.50
2022-09-15T22:16:24.410Z,13.50
2022-09-15T22:18:52.284Z,13.60
2022-09-15T22:21:28.073Z,13.60
2022-09-15T22:23:56.876Z,13.60
2022-09-15T22:26:27.273Z,13.70
2022-09-15T22:28:55.322Z,13.70
2022-09-15T22:31:24.507Z,13.70
2022-09-15T22:33:53.343Z,13.60
2022-09-15T22:36:30.307Z,13.60
2022-09-15T22:39:05.715Z,13.70
2022-09-15T22:41:36.084Z,13.60
2022-09-15T22:44:04.448Z,13.60
2022-09-15T22:46:31.990Z,13.50
2022-09-15T22:48:59.682Z,13.50
2022-09-15T22:51:27.218Z,13.50
2022-09-15T22:53:57.194Z,13.50
2022-09-15T22:56:28.430Z,13.50
2022-09-15T22:58:56.817Z,13.50
2022-09-15T23:01:27.565Z,13.50
2022-09-15T23:03:57.417Z,13.40
2022-09-15T23:06:29.050Z,13.40
2022-09-15T23:08:59.059Z,13.40
2022-09-15T23:11:28.305Z,13.40
2022-09-15T23:13:56.451Z,13.50
2022-09-15T23:16:25.212Z,13.50
2022-09-15T23:18:53.805Z,13.50
2022-09-15T23:21:21.606Z,13.50
2022-09-15T23:23:49.370Z,13.50
2022-09-15T23:26:18.913Z,13.50
2022-09-15T23:28:46.678Z,13.50
2022-09-15T23:31:14.385Z,13.50
2022-09-15T23:33:42.582Z,13.40
2022-09-15T23:36:13.204Z,13.50
2022-09-15T23:38:41.864Z,13.40
2022-09-15T23:41:10.310Z,13.50
2022-09-15T23:43:37.660Z,13.40
2022-09-15T23:46:05.785Z,13.40
2022-09-15T23:48:33.692Z,13.40
2022-09-15T23:51:01.695Z,13.40
2022-09-15T23:53:29.683Z,13.50
2022-09-15T23:55:57.227Z,13.50
2022-09-15T23:58:24.893Z,13.50
